Time;durP1;ratioP1;P1;durP2;ratioP2;P2;SDS_P1;SDS_P2;PMS_P1;PMS_P2;Temp;Humidity;BMP_temperature;BMP_pressure;BME280_temperature;BME280_humidity;BME280_pressure;Samples;Min_cycle;Max_cycle;Signal;HPM_P1;HPM_P2
2023/06/08 00:00:51;;;;;;;8.27;7.20;;;;;;;17.91;100.00;99617.25;12216492;19;20085;-80
2023/06/08 00:04:53;;;;;;;8.38;7.25;;;;;;;17.81;100.00;99612.63;12205166;19;20535;-80
2023/06/08 00:08:55;;;;;;;8.47;7.07;;;;;;;17.80;100.00;99608.22;12214710;19;20002;-84
2023/06/08 00:12:57;;;;;;;8.57;6.80;;;;;;;17.78;100.00;99610.47;12213843;19;20003;-81
2023/06/08 00:17:02;;;;;;;9.93;7.32;;;;;;;17.77;100.00;99614.34;12192362;19;20007;-82
2023/06/08 00:21:04;;;;;;;8.95;6.70;;;;;;;17.76;100.00;99610.75;12216716;19;20078;-82
2023/06/08 00:25:06;;;;;;;11.18;7.40;;;;;;;17.72;100.00;99606.88;12212449;19;20436;-82
2023/06/08 00:29:08;;;;;;;8.77;7.13;;;;;;;17.64;100.00;99604.81;12192297;19;20033;-82
2023/06/08 00:33:10;;;;;;;9.43;7.00;;;;;;;17.58;100.00;99606.00;12205208;19;20771;-83
2023/06/08 00:37:12;;;;;;;10.30;7.45;;;;;;;17.60;100.00;99600.13;12213800;19;20663;-82
2023/06/08 00:41:14;;;;;;;10.52;7.78;;;;;;;17.57;100.00;99598.75;12193218;19;20020;-83
2023/06/08 00:45:16;;;;;;;10.07;7.10;;;;;;;17.54;100.00;99593.81;12214025;19;20019;-82
2023/06/08 00:49:18;;;;;;;9.53;6.70;;;;;;;17.52;100.00;99591.34;12213745;19;20014;-81
2023/06/08 00:53:24;;;;;;;9.20;6.90;;;;;;;17.47;100.00;99599.75;12190720;19;20011;-83
2023/06/08 00:57:28;;;;;;;7.63;6.55;;;;;;;17.39;100.00;99585.66;12211499;19;20843;-85
2023/06/08 01:01:32;;;;;;;8.38;6.80;;;;;;;17.39;100.00;99591.25;12214313;19;20002;-82
2023/06/08 01:05:33;;;;;;;9.38;6.70;;;;;;;17.33;100.00;99590.47;12189545;19;20014;-81
2023/06/08 01:09:48;;;;;;;12.10;6.88;;;;;;;17.33;100.00;99586.88;12212636;19;20019;-82
2023/06/08 01:14:13;;;;;;;13.55;7.00;;;;;;;17.33;100.00;99587.69;12209321;19;20011;-84
2023/06/08 01:18:17;;;;;;;9.85;7.20;;;;;;;17.36;100.00;99589.06;12189243;19;20078;-83
2023/06/08 01:22:27;;;;;;;9.15;6.47;;;;;;;17.39;100.00;99592.06;12231828;19;20050;-83
2023/06/08 01:26:31;;;;;;;10.00;7.07;;;;;;;17.37;100.00;99593.50;12200762;19;20015;-83
2023/06/08 01:30:35;;;;;;;8.73;6.30;;;;;;;17.33;100.00;99584.09;12218601;19;20014;-85
2023/06/08 01:34:39;;;;;;;9.68;7.32;;;;;;;17.33;100.00;99592.44;12216890;19;20018;-84
2023/06/08 01:39:03;;;;;;;8.30;6.55;;;;;;;17.30;100.00;99594.69;12194028;19;20014;-83
2023/06/08 01:43:08;;;;;;;10.50;6.75;;;;;;;17.28;100.00;99596.97;12215704;19;20014;-85
2023/06/08 01:47:14;;;;;;;10.80;7.15;;;;;;;17.26;100.00;99599.22;12196605;19;20499;-85
2023/06/08 01:51:18;;;;;;;9.95;7.53;;;;;;;17.25;100.00;99605.91;12213827;19;20014;-83
2023/06/08 01:55:21;;;;;;;10.15;6.90;;;;;;;17.23;100.00;99604.56;12213378;19;20125;-82
2023/06/08 01:59:23;;;;;;;9.88;7.45;;;;;;;17.17;100.00;99592.66;12188030;19;20628;-84
2023/06/08 02:03:25;;;;;;;9.65;7.50;;;;;;;17.11;100.00;99596.63;12212680;19;20006;-82
2023/06/08 02:07:26;;;;;;;9.05;7.45;;;;;;;17.05;100.00;99608.97;12214068;19;20078;-83
2023/06/08 02:11:28;;;;;;;10.27;8.27;;;;;;;16.99;100.00;99599.84;12190910;19;20027;-82
2023/06/08 02:15:30;;;;;;;8.75;7.05;;;;;;;16.89;100.00;99605.53;12207851;19;20015;-82
2023/06/08 02:19:32;;;;;;;9.43;6.93;;;;;;;16.78;100.00;99602.06;12208339;19;20006;-80
2023/06/08 02:23:34;;;;;;;10.95;7.32;;;;;;;16.66;100.00;99604.38;12188774;19;20006;-80
2023/06/08 02:27:36;;;;;;;9.20;7.88;;;;;;;16.53;100.00;99600.34;12211652;19;20030;-80
2023/06/08 02:31:38;;;;;;;8.03;6.77;;;;;;;16.38;100.00;99604.09;12211181;19;20006;-82
2023/06/08 02:35:40;;;;;;;11.55;7.75;;;;;;;16.27;100.00;99607.28;12184408;19;20279;-82
2023/06/08 02:39:42;;;;;;;11.32;7.80;;;;;;;16.12;100.00;99602.69;12205927;19;20527;-83
2023/06/08 02:43:44;;;;;;;11.20;7.97;;;;;;;16.01;100.00;99601.97;12204134;19;20098;-82
2023/06/08 02:47:46;;;;;;;9.82;8.18;;;;;;;15.92;100.00;99598.97;12186541;19;20007;-83
2023/06/08 02:51:48;;;;;;;9.32;8.02;;;;;;;15.90;100.00;99606.75;12209230;19;20014;-83
2023/06/08 02:55:50;;;;;;;11.45;8.65;;;;;;;15.88;100.00;99605.38;12211901;19;20007;-82
2023/06/08 02:59:57;;;;;;;11.10;8.10;;;;;;;15.87;100.00;99601.78;12195196;19;20006;-83
2023/06/08 03:04:00;;;;;;;10.98;7.82;;;;;;;15.83;100.00;99611.84;12216650;19;20002;-81
2023/06/08 03:08:09;;;;;;;10.50;8.23;;;;;;;15.76;100.00;99607.72;12198470;19;20034;-84
2023/06/08 03:12:12;;;;;;;10.13;8.43;;;;;;;15.67;100.00;99613.00;12219968;19;20015;-81
2023/06/08 03:16:17;;;;;;;11.63;8.25;;;;;;;15.60;100.00;99606.97;12217711;19;20039;-81
2023/06/08 03:20:19;;;;;;;11.87;8.37;;;;;;;15.53;100.00;99600.88;12193607;19;20345;-83
2023/06/08 03:24:32;;;;;;;11.30;8.77;;;;;;;15.47;100.00;99603.72;12217246;19;20713;-80
2023/06/08 03:28:34;;;;;;;12.25;8.75;;;;;;;15.39;100.00;99600.72;12219229;19;20721;-82
2023/06/08 03:32:38;;;;;;;10.90;8.80;;;;;;;15.30;100.00;99600.47;12195491;19;20543;-81
2023/06/08 03:36:40;;;;;;;12.02;8.88;;;;;;;15.20;100.00;99606.06;12217938;19;20136;-82
2023/06/08 03:40:51;;;;;;;11.32;8.75;;;;;;;15.12;100.00;99607.50;12215527;19;20367;-79
2023/06/08 03:44:55;;;;;;;14.75;9.07;;;;;;;15.11;100.00;99605.88;12192869;19;20018;-81
2023/06/08 03:48:58;;;;;;;;;;;;;;;15.08;100.00;99613.91;12216914;19;20007;-80
2023/06/08 03:53:00;;;;;;;9.98;8.70;;;;;;;15.07;100.00;99615.03;12194074;19;19902;-82
2023/06/08 03:57:02;;;;;;;11.40;9.95;;;;;;;15.07;100.00;99615.03;12217549;19;20059;-82
2023/06/08 04:01:04;;;;;;;16.23;10.57;;;;;;;15.06;100.00;99616.16;12215232;19;20007;-82
2023/06/08 04:05:06;;;;;;;13.82;10.38;;;;;;;15.03;100.00;99621.16;12190528;19;20017;-80
2023/06/08 04:09:11;;;;;;;15.20;10.90;;;;;;;15.00;100.00;99618.13;12214079;19;20007;-81
2023/06/08 04:13:13;;;;;;;13.75;9.95;;;;;;;14.98;100.00;99629.50;12212790;19;20530;-82
2023/06/08 04:17:16;;;;;;;13.55;10.05;;;;;;;14.96;100.00;99626.19;12192333;19;20011;-82
2023/06/08 04:21:21;;;;;;;11.40;9.57;;;;;;;14.98;100.00;99623.13;12212564;19;20015;-81
2023/06/08 04:25:25;;;;;;;14.23;11.10;;;;;;;14.97;100.00;99625.06;12215050;19;20015;-82
2023/06/08 04:29:30;;;;;;;12.15;9.93;;;;;;;14.95;100.00;99627.28;12191617;19;20480;-81
2023/06/08 04:33:32;;;;;;;17.65;10.57;;;;;;;14.97;100.00;99629.78;12213474;19;20408;-82
2023/06/08 04:37:37;;;;;;;16.35;10.93;;;;;;;14.98;100.00;99632.25;12212826;19;20514;-81
2023/06/08 04:41:40;;;;;;;13.57;10.88;;;;;;;15.02;100.00;99638.94;12189696;19;20467;-81
2023/06/08 04:45:44;;;;;;;17.15;11.10;;;;;;;15.11;100.00;99632.75;12209872;19;20516;-81
2023/06/08 04:49:47;;;;;;;26.27;11.70;;;;;;;15.17;100.00;99626.06;12212138;19;20007;-81
2023/06/08 04:53:51;;;;;;;16.02;10.15;;;;;;;15.26;100.00;99624.38;12191313;19;20456;-80
2023/06/08 04:57:52;;;;;;;11.40;10.00;;;;;;;15.36;100.00;99624.31;12210240;19;20007;-82
2023/06/08 05:01:55;;;;;;;12.15;10.25;;;;;;;15.50;100.00;99621.75;12194410;19;20010;-81
2023/06/08 05:05:58;;;;;;;14.05;9.55;;;;;;;15.64;100.00;99621.94;12209377;19;20011;-80
2023/06/08 05:10:01;;;;;;;11.50;9.73;;;;;;;15.78;100.00;99625.75;12213003;19;20006;-81
2023/06/08 05:14:03;;;;;;;;;;;;;;;15.90;100.00;99629.00;12185849;19;19999;-83
2023/06/08 05:18:05;;;;;;;12.30;8.68;;;;;;;16.02;100.00;99617.50;12211502;19;19927;-81
2023/06/08 05:22:06;;;;;;;11.03;9.17;;;;;;;16.15;100.00;99618.78;12211483;19;20030;-82
2023/06/08 05:26:08;;;;;;;12.02;9.48;;;;;;;16.25;100.00;99621.47;12190133;19;20015;-81
2023/06/08 05:30:11;;;;;;;10.02;8.85;;;;;;;16.38;100.00;99615.22;12211058;19;20417;-81
2023/06/08 05:34:12;;;;;;;12.35;9.70;;;;;;;16.55;100.00;99617.56;12210081;19;20763;-82
2023/06/08 05:38:19;;;;;;;11.65;8.80;;;;;;;16.70;100.00;99608.22;12187846;19;20047;-81
2023/06/08 05:42:21;;;;;;;13.38;9.30;;;;;;;16.84;100.00;99613.97;12209281;19;20011;-81
2023/06/08 05:46:25;;;;;;;11.45;8.82;;;;;;;17.00;100.00;99615.41;12210047;19;20006;-80
2023/06/08 05:50:27;;;;;;;11.55;8.65;;;;;;;17.11;100.00;99620.88;12189182;19;20033;-83
2023/06/08 05:54:29;;;;;;;11.18;8.80;;;;;;;17.26;100.00;99615.09;12208488;19;20071;-82
2023/06/08 05:58:31;;;;;;;11.68;9.40;;;;;;;17.38;100.00;99618.28;12210094;19;20015;-82
2023/06/08 06:02:50;;;;;;;11.88;9.15;;;;;;;17.53;100.00;99620.00;12187743;19;20111;-81
2023/06/08 06:06:52;;;;;;;12.48;9.23;;;;;;;17.74;100.00;99620.53;12211620;19;20010;-81
2023/06/08 06:10:54;;;;;;;10.68;8.50;;;;;;;17.93;100.00;99629.72;12198475;19;20075;-82
2023/06/08 06:14:56;;;;;;;12.88;9.23;;;;;;;18.13;100.00;99625.78;12207552;19;20010;-81
2023/06/08 06:18:58;;;;;;;13.57;8.70;;;;;;;18.34;100.00;99626.25;12207880;19;20036;-83
2023/06/08 06:22:59;;;;;;;11.20;7.97;;;;;;;18.50;100.00;99621.25;12185872;19;20022;-82
2023/06/08 06:27:07;;;;;;;10.10;8.27;;;;;;;18.68;100.00;99617.56;12209209;19;20458;-82
2023/06/08 06:31:09;;;;;;;10.30;8.25;;;;;;;18.89;100.00;99629.19;12211198;19;20034;-82
2023/06/08 06:35:12;;;;;;;11.02;8.23;;;;;;;19.06;100.00;99624.91;12194675;19;20755;-82
2023/06/08 06:39:15;;;;;;;9.57;8.38;;;;;;;19.24;100.00;99640.72;12219716;19;20034;-85
2023/06/08 06:43:16;;;;;;;10.03;8.50;;;;;;;19.41;100.00;99636.47;12219492;19;20073;-83
2023/06/08 06:47:25;;;;;;;11.15;8.23;;;;;;;19.57;100.00;99633.06;12196562;19;20240;-85
2023/06/08 06:51:27;;;;;;;11.25;8.75;;;;;;;19.71;100.00;99635.81;12222598;19;20041;-84
2023/06/08 06:55:34;;;;;;;13.13;8.30;;;;;;;19.90;100.00;99638.47;12219624;19;20014;-82
2023/06/08 06:59:36;;;;;;;10.25;8.25;;;;;;;20.08;99.74;99639.44;12199638;19;20392;-83
2023/06/08 07:03:43;;;;;;;12.15;8.73;;;;;;;20.26;98.19;99637.59;12224827;19;20011;-82
2023/06/08 07:07:44;;;;;;;11.05;8.35;;;;;;;20.44;96.29;99633.75;12221248;19;20070;-82
2023/06/08 07:11:48;;;;;;;10.27;8.32;;;;;;;20.67;95.00;99640.19;12208369;19;20023;-81
2023/06/08 07:16:06;;;;;;;11.30;7.57;;;;;;;20.86;93.31;99642.72;12242064;19;20014;-81
2023/06/08 07:20:08;;;;;;;9.53;8.40;;;;;;;21.10;91.47;99638.72;12208334;19;20026;-83
2023/06/08 07:24:11;;;;;;;9.43;7.85;;;;;;;21.30;88.69;99640.91;12224484;19;20006;-83
2023/06/08 07:28:33;;;;;;;10.65;9.07;;;;;;;21.45;88.25;99641.66;12230664;19;20037;-82
2023/06/08 07:32:35;;;;;;;8.85;7.18;;;;;;;21.62;88.07;99647.25;12202787;19;20011;-83
2023/06/08 07:36:38;;;;;;;12.07;8.73;;;;;;;21.85;86.22;99651.59;12214349;19;20007;-81
2023/06/08 07:40:40;;;;;;;11.00;7.73;;;;;;;21.99;85.12;99643.00;12214514;19;20034;-84
2023/06/08 07:44:41;;;;;;;10.70;7.30;;;;;;;22.23;83.79;99644.53;12191658;19;20493;-84
2023/06/08 07:48:43;;;;;;;8.88;7.95;;;;;;;22.40;82.17;99649.25;12223194;19;20425;-85
2023/06/08 07:52:48;;;;;;;9.80;7.90;;;;;;;22.59;81.04;99649.75;12199660;19;20034;-84
2023/06/08 07:56:52;;;;;;;11.07;8.40;;;;;;;22.75;79.50;99650.00;12200871;19;20006;-84
2023/06/08 08:00:54;;;;;;;10.07;8.27;;;;;;;23.02;79.37;99653.59;12219837;19;20003;-85
2023/06/08 08:04:55;;;;;;;11.83;8.27;;;;;;;23.16;76.21;99657.00;12202224;19;20013;-84
2023/06/08 08:08:57;;;;;;;9.67;8.20;;;;;;;23.27;77.20;99660.28;12225877;19;20278;-84
2023/06/08 08:13:00;;;;;;;;;;;;;;;23.38;76.05;99664.31;12225624;19;20014;-85
2023/06/08 08:17:02;;;;;;;12.05;8.30;;;;;;;23.62;75.12;99658.09;12209196;19;20265;-84
2023/06/08 08:21:05;;;;;;;10.00;8.45;;;;;;;23.83;72.57;99652.50;12228453;19;20014;-83
2023/06/08 08:25:07;;;;;;;11.55;8.52;;;;;;;23.93;73.05;99654.91;12230117;19;20010;-84
2023/06/08 08:29:10;;;;;;;10.57;8.38;;;;;;;24.05;73.38;99649.34;12204352;19;20006;-86
2023/06/08 08:33:12;;;;;;;9.80;7.97;;;;;;;24.04;71.41;99653.31;12221088;19;20378;-85
2023/06/08 08:37:18;;;;;;;11.98;8.43;;;;;;;24.10;70.28;99651.13;12224056;19;20023;-85
2023/06/08 08:41:21;;;;;;;10.18;7.72;;;;;;;24.26;70.35;99642.84;12195272;19;20751;-85
2023/06/08 08:45:27;;;;;;;9.90;8.27;;;;;;;24.31;70.04;99648.28;12220126;19;20018;-85
2023/06/08 08:49:36;;;;;;;9.18;7.68;;;;;;;24.44;69.37;99646.34;12221963;19;20756;-85
2023/06/08 08:53:40;;;;;;;10.70;7.85;;;;;;;24.79;68.70;99646.81;12196621;19;20021;-84
2023/06/08 08:57:42;;;;;;;11.30;7.68;;;;;;;24.99;66.48;99645.91;12220272;19;20443;-83
2023/06/08 09:01:44;;;;;;;10.00;7.60;;;;;;;25.06;64.79;99641.69;12216302;19;20468;-82
2023/06/08 09:05:51;;;;;;;9.48;8.05;;;;;;;25.09;64.47;99640.97;12195070;19;20021;-84
2023/06/08 09:10:29;;;;;;;11.05;7.78;;;;;;;25.18;64.58;99636.91;12217413;19;20010;-84
2023/06/08 09:14:32;;;;;;;8.75;6.90;;;;;;;25.36;62.36;99633.84;12189585;19;20509;-85
2023/06/08 09:18:34;;;;;;;9.27;7.57;;;;;;;25.62;60.78;99637.09;12217822;19;20026;-84
2023/06/08 09:22:36;;;;;;;8.63;7.55;;;;;;;25.73;60.43;99634.63;12218654;19;20271;-84
2023/06/08 09:26:45;;;;;;;11.15;7.55;;;;;;;25.81;62.11;99633.66;12194311;19;20468;-82
2023/06/08 09:30:48;;;;;;;9.85;7.72;;;;;;;26.15;59.84;99620.19;12214324;19;20014;-83
2023/06/08 09:34:56;;;;;;;10.02;7.72;;;;;;;26.25;59.75;99616.81;12214409;19;20298;-84
2023/06/08 09:39:03;;;;;;;8.65;7.38;;;;;;;26.39;58.34;99616.41;12191935;19;20011;-85
2023/06/08 09:43:06;;;;;;;9.18;7.93;;;;;;;26.45;57.17;99617.81;12216119;19;20007;-88
2023/06/08 09:47:26;;;;;;;8.82;7.93;;;;;;;26.53;56.88;99610.34;12197152;19;20435;-84
2023/06/08 09:51:30;;;;;;;9.23;7.00;;;;;;;26.52;56.17;99609.53;12214444;19;20096;-85
2023/06/08 09:55:35;;;;;;;8.45;7.47;;;;;;;26.78;55.99;99611.03;12222147;19;20469;-83
2023/06/08 09:59:41;;;;;;;9.55;7.75;;;;;;;26.81;55.79;99604.66;12192588;19;20092;-85
2023/06/08 10:03:47;;;;;;;8.82;7.93;;;;;;;27.10;54.20;99602.53;12216667;19;20027;-84
2023/06/08 10:07:54;;;;;;;9.02;7.53;;;;;;;26.98;54.46;99592.97;12221302;19;20018;-85
2023/06/08 10:11:57;;;;;;;10.95;7.65;;;;;;;27.28;54.72;99592.53;12205402;19;20006;-83
2023/06/08 10:15:59;;;;;;;8.93;8.00;;;;;;;27.62;52.56;99596.53;12225678;19;20011;-84
2023/06/08 10:20:01;;;;;;;8.63;7.72;;;;;;;27.80;52.65;99588.47;12199440;19;20007;-85
2023/06/08 10:24:05;;;;;;;11.93;7.75;;;;;;;28.04;51.08;99586.53;12219419;19;20018;-81
2023/06/08 10:28:08;;;;;;;8.60;6.38;;;;;;;28.04;51.03;99589.38;12218539;19;20003;-84
2023/06/08 10:32:10;;;;;;;10.18;7.55;;;;;;;28.34;51.03;99589.56;12198026;19;20010;-85
2023/06/08 10:36:13;;;;;;;;;;;;;;;28.49;49.02;99579.38;12215214;19;20011;-84
2023/06/08 10:40:15;;;;;;;10.60;7.30;;;;;;;28.59;49.94;99576.75;12217025;19;19903;-85
2023/06/08 10:44:40;;;;;;;10.82;7.63;;;;;;;28.76;48.69;99566.06;12196551;19;20022;-83
2023/06/08 10:48:42;;;;;;;8.25;7.25;;;;;;;29.18;47.84;99551.84;12215134;19;20017;-83
2023/06/08 10:52:49;;;;;;;11.05;7.32;;;;;;;29.38;46.30;99544.00;12213746;19;20739;-84
2023/06/08 10:56:54;;;;;;;8.50;6.93;;;;;;;29.33;45.51;99537.84;12192953;19;20006;-84
2023/06/08 11:01:19;;;;;;;9.35;8.40;;;;;;;29.04;46.05;99532.56;12213551;19;20694;-84
2023/06/08 11:05:23;;;;;;;8.75;7.72;;;;;;;29.19;46.39;99529.94;12185130;19;20015;-84
2023/06/08 11:09:25;;;;;;;8.52;7.57;;;;;;;29.13;46.57;99522.97;12214607;19;20014;-84
2023/06/08 11:13:27;;;;;;;9.20;8.20;;;;;;;29.58;46.02;99524.00;12213033;19;20006;-84
2023/06/08 11:17:34;;;;;;;8.50;7.28;;;;;;;29.80;44.14;99525.94;12194721;19;20011;-84
2023/06/08 11:21:37;;;;;;;9.57;6.97;;;;;;;29.21;46.05;99527.53;12224744;19;20006;-85
2023/06/08 11:25:39;;;;;;;;;;;;;;;28.62;44.35;99512.81;12236609;19;20017;-84
2023/06/08 11:29:47;;;;;;;11.15;8.00;;;;;;;28.77;46.15;99513.88;12211894;19;19911;-84
2023/06/08 11:33:49;;;;;;;7.25;6.40;;;;;;;29.79;43.37;99507.28;12228771;19;20499;-85
2023/06/08 11:37:56;;;;;;;10.50;6.68;;;;;;;30.47;41.17;99496.66;12223790;19;20013;-86
2023/06/08 11:42:00;;;;;;;9.43;7.50;;;;;;;31.13;40.39;99493.97;12205312;19;20018;-85
2023/06/08 11:46:02;;;;;;;8.27;6.50;;;;;;;31.51;38.19;99494.63;12228334;19;20676;-87
2023/06/08 11:50:06;;;;;;;8.52;7.07;;;;;;;31.88;36.39;99479.28;12205514;19;20016;-88
2023/06/08 11:54:09;;;;;;;8.52;7.63;;;;;;;31.73;36.38;99482.09;12226443;19;20029;-86
2023/06/08 11:58:14;;;;;;;8.10;7.30;;;;;;;31.96;36.56;99473.25;12229267;19;20010;-85
2023/06/08 12:02:21;;;;;;;9.07;6.88;;;;;;;32.58;34.37;99472.16;12197678;19;20010;-85
2023/06/08 12:06:26;;;;;;;8.82;7.20;;;;;;;32.49;33.95;99468.88;12211621;19;20018;-86
2023/06/08 12:10:39;;;;;;;9.10;7.47;;;;;;;31.62;36.72;99464.16;12222313;19;20018;-85
2023/06/08 12:14:45;;;;;;;7.15;6.50;;;;;;;30.68;37.20;99466.78;12197538;19;20629;-85
2023/06/08 12:18:47;;;;;;;8.70;6.68;;;;;;;29.82;38.65;99460.25;12222709;19;20019;-85
2023/06/08 12:22:49;;;;;;;7.63;6.32;;;;;;;29.34;39.75;99460.03;12221060;19;20049;-85
2023/06/08 12:26:51;;;;;;;8.77;7.10;;;;;;;29.60;39.50;99465.66;12203492;19;20010;-84
2023/06/08 12:30:54;;;;;;;7.82;6.53;;;;;;;30.94;38.70;99469.44;12218670;19;20009;-83
2023/06/08 12:34:56;;;;;;;7.63;6.72;;;;;;;32.00;36.15;99450.44;12196573;19;20091;-86
2023/06/08 12:39:02;;;;;;;7.80;7.00;;;;;;;32.04;35.64;99450.44;12217206;19;20375;-90
2023/06/08 12:43:04;;;;;;;8.23;7.43;;;;;;;31.03;37.28;99449.19;12220884;19;20014;-82
2023/06/08 12:47:06;;;;;;;;;;;;;;;30.63;38.23;99437.50;12196199;19;20006;-82
2023/06/08 12:51:08;;;;;;;7.43;6.30;;;;;;;30.15;39.68;99445.16;12219205;19;20375;-86
2023/06/08 12:55:11;;;;;;;11.15;7.57;;;;;;;29.44;40.98;99450.81;12216674;19;20029;-83
2023/06/08 12:59:13;;;;;;;7.95;7.15;;;;;;;28.91;42.03;99446.00;12190203;19;20228;-85
2023/06/08 13:03:14;;;;;;;9.70;6.50;;;;;;;28.85;42.08;99454.06;12220759;19;20016;-86
2023/06/08 13:07:16;;;;;;;;;;;;;;;29.51;40.76;99454.59;12245878;19;20039;-86
2023/06/08 13:11:18;;;;;;;7.60;6.40;;;;;;;31.39;36.06;99455.09;12221841;19;21117;-85
2023/06/08 13:15:20;;;;;;;;;;;;;;;30.74;37.85;99448.94;12231265;19;21064;-85
2023/06/08 13:19:22;;;;;;;7.80;6.32;;;;;;;30.42;40.40;99440.16;12235264;19;19927;-87
2023/06/08 13:23:24;;;;;;;6.95;6.32;;;;;;;32.88;36.25;99437.47;12212246;19;20030;-85
2023/06/08 13:27:26;;;;;;;8.82;6.75;;;;;;;32.73;33.64;99430.16;12228879;19;20002;-85
2023/06/08 13:31:29;;;;;;;19.50;7.40;;;;;;;31.58;34.17;99429.13;12226918;19;20002;-86
2023/06/08 13:35:32;;;;;;;6.95;6.10;;;;;;;30.67;35.70;99429.00;12204220;19;20014;-87
2023/06/08 13:39:34;;;;;;;7.97;6.47;;;;;;;30.00;37.60;99432.84;12240114;19;20010;-87
2023/06/08 13:43:36;;;;;;;;;;;;;;;29.98;38.98;99412.53;12248710;19;20011;-89
2023/06/08 13:47:40;;;;;;;;;;;;;;;31.86;35.74;99410.50;12216598;19;19911;-87
2023/06/08 13:51:44;;;;;;;9.07;6.95;;;;;;;31.95;35.20;99403.25;12243609;19;19975;-85
2023/06/08 13:55:46;;;;;;;7.82;6.55;;;;;;;31.77;34.96;99397.47;12232723;19;20514;-88
2023/06/08 13:59:50;;;;;;;7.45;6.75;;;;;;;30.94;36.59;99394.69;12204904;19;20021;-86
2023/06/08 14:03:51;;;;;;;;;;;;;;;30.33;36.68;99399.88;12230699;19;20022;-89
2023/06/08 14:07:54;;;;;;;7.75;6.75;;;;;;;29.94;37.34;99406.81;12219685;19;19942;-86
2023/06/08 14:11:56;;;;;;;8.95;6.57;;;;;;;29.45;38.22;99396.53;12227569;19;20011;-87
2023/06/08 14:15:57;;;;;;;;;;;;;;;28.94;38.79;99399.84;12226103;19;20014;-86
2023/06/08 14:20:00;;;;;;;;;;;;;;;28.63;39.12;99403.88;12205825;19;19953;-85
2023/06/08 14:24:02;;;;;;;7.40;5.63;;;;;;;28.62;38.87;99416.41;12223218;19;20014;-86
2023/06/08 14:28:04;;;;;;;;;;;;;;;28.37;39.68;99418.81;12223708;19;20018;-85
2023/06/08 14:32:06;;;;;;;8.73;6.32;;;;;;;28.13;39.79;99417.19;12200668;19;19910;-85
2023/06/08 14:36:10;;;;;;;7.53;5.88;;;;;;;27.80;40.68;99410.13;12217107;19;20010;-86
2023/06/08 14:40:11;;;;;;;8.82;6.18;;;;;;;27.45;40.50;99407.38;12218055;19;20010;-86
2023/06/08 14:44:14;;;;;;;6.80;5.13;;;;;;;27.25;38.96;99407.38;12195225;19;20003;-87
2023/06/08 14:48:16;;;;;;;;;;;;;;;27.11;38.72;99407.03;12218892;19;20006;-86
2023/06/08 14:52:19;;;;;;;;;;;;;;;27.09;39.67;99406.59;12222087;19;19917;-86
2023/06/08 14:56:21;;;;;;;5.32;4.60;;;;;;;27.31;38.88;99405.09;12207386;19;19911;-86
2023/06/08 15:00:23;;;;;;;;;;;;;;;27.82;38.50;99413.41;12226761;19;20384;-86
2023/06/08 15:04:25;;;;;;;7.83;5.67;;;;;;;29.13;38.69;99398.13;12225317;19;19915;-86
2023/06/08 15:08:27;;;;;;;8.88;6.65;;;;;;;30.16;37.44;99424.06;12199409;19;20010;-86
2023/06/08 15:12:29;;;;;;;12.05;6.68;;;;;;;29.23;39.05;99437.16;12222238;19;20027;-86
2023/06/08 15:16:31;;;;;;;8.05;6.38;;;;;;;27.89;43.71;99452.34;12223149;19;20007;-85
2023/06/08 15:20:34;;;;;;;8.82;6.93;;;;;;;26.40;46.85;99448.56;12202424;19;20007;-86
2023/06/08 15:24:36;;;;;;;;;;;;;;;25.55;48.01;99430.09;12229388;19;20017;-84
2023/06/08 15:28:38;;;;;;;10.85;8.23;;;;;;;25.02;48.91;99422.50;12242595;19;19926;-86
2023/06/08 15:32:40;;;;;;;8.68;5.85;;;;;;;24.25;49.81;99432.88;12204819;19;20050;-84
2023/06/08 15:36:43;;;;;;;8.20;5.50;;;;;;;23.74;52.37;99433.13;12230662;19;20033;-84
2023/06/08 15:40:45;;;;;;;8.25;6.00;;;;;;;23.28;54.72;99431.38;12226969;19;20014;-85
2023/06/08 15:44:47;;;;;;;;;;;;;;;22.64;61.34;99433.31;12206441;19;20400;-81
2023/06/08 15:48:53;;;;;;;12.35;8.30;;;;;;;21.87;75.35;99448.50;12220587;19;20391;-81
2023/06/08 15:52:56;;;;;;;10.02;7.47;;;;;;;20.94;82.81;99445.91;12205911;19;20018;-82
2023/06/08 15:56:59;;;;;;;11.60;7.65;;;;;;;20.45;89.34;99475.06;12233265;19;20007;-82
2023/06/08 16:01:03;;;;;;;10.02;7.82;;;;;;;20.07;96.39;99505.47;12225625;19;20014;-82
2023/06/08 16:05:05;;;;;;;11.45;8.23;;;;;;;19.76;100.00;99515.50;12203233;19;20010;-82
2023/06/08 16:09:07;;;;;;;;;;;;;;;19.49;100.00;99538.78;12225120;19;20625;-83
2023/06/08 16:13:09;;;;;;;12.38;9.75;;;;;;;19.22;100.00;99548.06;12231059;19;19911;-85
2023/06/08 16:17:11;;;;;;;17.77;8.23;;;;;;;18.76;100.00;99562.16;12203284;19;20006;-85
2023/06/08 16:21:15;;;;;;;12.47;8.30;;;;;;;18.08;100.00;99531.06;12220561;19;20244;-82
2023/06/08 16:25:17;;;;;;;11.30;8.73;;;;;;;17.28;100.00;99526.50;12218426;19;20010;-83
2023/06/08 16:29:22;;;;;;;16.65;10.70;;;;;;;17.01;100.00;99513.25;12194377;19;20019;-80
2023/06/08 16:33:24;;;;;;;16.38;10.90;;;;;;;16.93;100.00;99506.41;12216798;19;20460;-81
2023/06/08 16:37:26;;;;;;;13.50;7.77;;;;;;;16.92;100.00;99510.31;12215179;19;20138;-82
2023/06/08 16:41:28;;;;;;;11.88;8.05;;;;;;;16.80;100.00;99505.16;12191509;19;20013;-83
2023/06/08 16:45:31;;;;;;;17.40;10.90;;;;;;;16.62;100.00;99495.63;12214168;19;20025;-84
2023/06/08 16:49:33;;;;;;;18.48;12.23;;;;;;;16.57;100.00;99498.50;12219936;19;20041;-84
2023/06/08 16:53:36;;;;;;;12.90;8.63;;;;;;;16.62;100.00;99503.16;12196473;19;20056;-85
2023/06/08 16:57:38;;;;;;;13.85;8.15;;;;;;;16.51;100.00;99476.59;12218023;19;20018;-84
2023/06/08 17:01:45;;;;;;;17.35;9.18;;;;;;;16.39;100.00;99482.59;12215719;19;20010;-82
2023/06/08 17:05:50;;;;;;;13.40;8.35;;;;;;;16.34;100.00;99463.19;12194501;19;20389;-85
2023/06/08 17:09:54;;;;;;;13.63;8.40;;;;;;;16.29;100.00;99458.50;12216072;19;20011;-84
2023/06/08 17:13:58;;;;;;;16.70;10.13;;;;;;;16.29;100.00;99455.72;12194168;19;20111;-85
2023/06/08 17:18:00;;;;;;;12.95;9.15;;;;;;;16.33;100.00;99465.16;12216609;19;20488;-84
2023/06/08 17:22:03;;;;;;;15.50;8.80;;;;;;;16.36;100.00;99456.22;12220238;19;20017;-84
2023/06/08 17:26:05;;;;;;;12.27;7.97;;;;;;;16.46;100.00;99465.56;12194749;19;20017;-83
2023/06/08 17:30:07;;;;;;;11.52;7.15;;;;;;;16.51;100.00;99493.28;12217946;19;20015;-83
2023/06/08 17:34:15;;;;;;;10.82;7.10;;;;;;;16.47;100.00;99495.00;12212000;19;20031;-82
2023/06/08 17:38:16;;;;;;;12.20;8.20;;;;;;;16.39;100.00;99486.22;12188945;19;20463;-81
2023/06/08 17:42:21;;;;;;;13.10;7.82;;;;;;;16.43;100.00;99478.09;12209286;19;20010;-82
2023/06/08 17:46:24;;;;;;;13.65;7.75;;;;;;;16.50;100.00;99475.75;12211821;19;20054;-82
2023/06/08 17:50:27;;;;;;;13.13;8.32;;;;;;;16.60;100.00;99470.09;12189415;19;20010;-82
2023/06/08 17:54:30;;;;;;;14.98;11.18;;;;;;;16.70;100.00;99462.72;12212141;19;20523;-82
2023/06/08 17:58:32;;;;;;;12.15;9.13;;;;;;;16.80;100.00;99452.31;12212681;19;20002;-82
2023/06/08 18:02:34;;;;;;;;;;;;;;;16.88;100.00;99450.00;12195075;19;20357;-82
2023/06/08 18:06:40;;;;;;;11.18;8.23;;;;;;;16.94;100.00;99446.00;12210276;19;20631;-82
2023/06/08 18:10:43;;;;;;;11.80;8.93;;;;;;;17.00;100.00;99453.16;12212446;19;20007;-82
2023/06/08 18:14:45;;;;;;;11.07;8.15;;;;;;;17.05;100.00;99448.34;12187252;19;20010;-82
2023/06/08 18:18:50;;;;;;;16.90;8.82;;;;;;;17.11;100.00;99449.09;12210728;19;20015;-82
2023/06/08 18:22:52;;;;;;;13.40;8.82;;;;;;;17.14;100.00;99450.44;12209760;19;20166;-82
2023/06/08 18:26:56;;;;;;;11.80;8.40;;;;;;;17.13;100.00;99443.19;12194061;19;20014;-83
2023/06/08 18:30:57;;;;;;;11.50;8.37;;;;;;;17.10;100.00;99444.63;12225046;19;20022;-81
2023/06/08 18:34:59;;;;;;;12.15;8.57;;;;;;;17.04;100.00;99443.91;12200095;19;20002;-82
2023/06/08 18:39:05;;;;;;;10.57;8.30;;;;;;;17.02;100.00;99423.06;12223876;19;20010;-83
2023/06/08 18:43:07;;;;;;;12.90;8.18;;;;;;;17.02;100.00;99431.41;12218122;19;20011;-82
2023/06/08 18:47:09;;;;;;;12.52;8.57;;;;;;;17.03;100.00;99438.63;12208768;19;20015;-80